sensor_id;sensor_type;location;lat;lon;timestamp;P1;durP1;ratioP1;P2;durP2;ratioP2
7917;SDS011;4004;42.624;23.386;2023-05-10T00:00:53;8.30;;;7.33;;
7917;SDS011;4004;42.624;23.386;2023-05-10T00:03:20;8.00;;;7.27;;
7917;SDS011;4004;42.624;23.386;2023-05-10T00:05:46;6.77;;;6.20;;
7917;SDS011;4004;42.624;23.386;2023-05-10T00:08:15;7.13;;;6.53;;
7917;SDS011;4004;42.624;23.386;2023-05-10T00:10:41;8.03;;;7.33;;
7917;SDS011;4004;42.624;23.386;2023-05-10T00:13:08;8.13;;;7.43;;
7917;SDS011;4004;42.624;23.386;2023-05-10T00:15:35;7.60;;;7.00;;
7917;SDS011;4004;42.624;23.386;2023-05-10T00:18:02;7.67;;;6.83;;
7917;SDS011;4004;42.624;23.386;2023-05-10T00:20:29;11.63;;;6.50;;
7917;SDS011;4004;42.624;23.386;2023-05-10T00:22:55;8.07;;;7.27;;
7917;SDS011;4004;42.624;23.386;2023-05-10T00:25:24;6.57;;;5.97;;
7917;SDS011;4004;42.624;23.386;2023-05-10T00:27:50;7.37;;;6.67;;
7917;SDS011;4004;42.624;23.386;2023-05-10T00:30:17;6.47;;;5.97;;
7917;SDS011;4004;42.624;23.386;2023-05-10T00:32:44;6.60;;;6.10;;
7917;SDS011;4004;42.624;23.386;2023-05-10T00:35:10;6.23;;;5.63;;
7917;SDS011;4004;42.624;23.386;2023-05-10T00:37:37;5.57;;;5.13;;
7917;SDS011;4004;42.624;23.386;2023-05-10T00:40:04;5.90;;;5.40;;
7917;SDS011;4004;42.624;23.386;2023-05-10T00:42:33;5.50;;;5.10;;
7917;SDS011;4004;42.624;23.386;2023-05-10T00:45:00;6.13;;;5.63;;
7917;SDS011;4004;42.624;23.386;2023-05-10T00:47:27;5.87;;;5.47;;
7917;SDS011;4004;42.624;23.386;2023-05-10T00:49:54;7.03;;;6.43;;
7917;SDS011;4004;42.624;23.386;2023-05-10T00:52:21;7.70;;;7.03;;
7917;SDS011;4004;42.624;23.386;2023-05-10T00:54:49;7.13;;;6.53;;
7917;SDS011;4004;42.624;23.386;2023-05-10T00:57:18;7.67;;;7.03;;
7917;SDS011;4004;42.624;23.386;2023-05-10T00:59:46;7.97;;;7.13;;
7917;SDS011;4004;42.624;23.386;2023-05-10T01:02:13;8.60;;;7.90;;
7917;SDS011;4004;42.624;23.386;2023-05-10T01:04:40;9.13;;;8.43;;
7917;SDS011;4004;42.624;23.386;2023-05-10T01:07:07;9.00;;;8.20;;
7917;SDS011;4004;42.624;23.386;2023-05-10T01:09:33;7.07;;;6.47;;
7917;SDS011;4004;42.624;23.386;2023-05-10T01:12:01;6.53;;;5.97;;
7917;SDS011;4004;42.624;23.386;2023-05-10T01:14:29;8.27;;;7.57;;
7917;SDS011;4004;42.624;23.386;2023-05-10T01:16:57;7.30;;;6.70;;
7917;SDS011;4004;42.624;23.386;2023-05-10T01:19:26;7.30;;;6.63;;
7917;SDS011;4004;42.624;23.386;2023-05-10T01:21:58;6.53;;;6.03;;
7917;SDS011;4004;42.624;23.386;2023-05-10T01:24:46;7.00;;;6.30;;
7917;SDS011;4004;42.624;23.386;2023-05-10T01:27:35;6.60;;;5.87;;
7917;SDS011;4004;42.624;23.386;2023-05-10T01:30:22;7.97;;;7.33;;
7917;SDS011;4004;42.624;23.386;2023-05-10T01:33:02;7.40;;;6.80;;
7917;SDS011;4004;42.624;23.386;2023-05-10T01:35:37;6.83;;;6.23;;
7917;SDS011;4004;42.624;23.386;2023-05-10T01:38:09;5.27;;;4.87;;
7917;SDS011;4004;42.624;23.386;2023-05-10T01:40:46;6.40;;;5.90;;
7917;SDS011;4004;42.624;23.386;2023-05-10T01:43:19;4.87;;;4.40;;
7917;SDS011;4004;42.624;23.386;2023-05-10T01:45:50;12.43;;;5.40;;
7917;SDS011;4004;42.624;23.386;2023-05-10T01:48:27;6.70;;;6.20;;
7917;SDS011;4004;42.624;23.386;2023-05-10T01:50:56;5.67;;;5.27;;
7917;SDS011;4004;42.624;23.386;2023-05-10T01:53:24;8.00;;;4.97;;
7917;SDS011;4004;42.624;23.386;2023-05-10T01:55:52;4.77;;;4.33;;
7917;SDS011;4004;42.624;23.386;2023-05-10T01:58:22;5.87;;;5.23;;
7917;SDS011;4004;42.624;23.386;2023-05-10T02:00:53;5.43;;;4.93;;
7917;SDS011;4004;42.624;23.386;2023-05-10T02:03:21;5.37;;;4.90;;
7917;SDS011;4004;42.624;23.386;2023-05-10T02:05:52;4.80;;;4.40;;
7917;SDS011;4004;42.624;23.386;2023-05-10T02:08:20;5.13;;;4.70;;
7917;SDS011;4004;42.624;23.386;2023-05-10T02:10:49;5.10;;;4.70;;
7917;SDS011;4004;42.624;23.386;2023-05-10T02:13:17;8.90;;;5.07;;
7917;SDS011;4004;42.624;23.386;2023-05-10T02:15:46;5.23;;;4.73;;
7917;SDS011;4004;42.624;23.386;2023-05-10T02:18:14;7.27;;;5.53;;
7917;SDS011;4004;42.624;23.386;2023-05-10T02:20:43;5.03;;;4.57;;
7917;SDS011;4004;42.624;23.386;2023-05-10T02:23:13;5.03;;;4.40;;
7917;SDS011;4004;42.624;23.386;2023-05-10T02:25:41;5.37;;;4.70;;
7917;SDS011;4004;42.624;23.386;2023-05-10T02:28:10;8.30;;;5.93;;
7917;SDS011;4004;42.624;23.386;2023-05-10T02:30:38;6.00;;;5.33;;
7917;SDS011;4004;42.624;23.386;2023-05-10T02:33:05;6.97;;;4.50;;
7917;SDS011;4004;42.624;23.386;2023-05-10T02:35:33;9.73;;;5.33;;
7917;SDS011;4004;42.624;23.386;2023-05-10T02:38:01;5.83;;;5.20;;
7917;SDS011;4004;42.624;23.386;2023-05-10T02:40:30;4.97;;;4.47;;
7917;SDS011;4004;42.624;23.386;2023-05-10T02:42:58;5.93;;;4.63;;
7917;SDS011;4004;42.624;23.386;2023-05-10T02:45:28;7.20;;;5.17;;
7917;SDS011;4004;42.624;23.386;2023-05-10T02:47:57;6.30;;;5.80;;
7917;SDS011;4004;42.624;23.386;2023-05-10T02:50:26;13.97;;;6.07;;
7917;SDS011;4004;42.624;23.386;2023-05-10T02:52:55;6.23;;;5.67;;
7917;SDS011;4004;42.624;23.386;2023-05-10T02:55:27;7.60;;;6.20;;
7917;SDS011;4004;42.624;23.386;2023-05-10T02:58:01;9.70;;;5.80;;
7917;SDS011;4004;42.624;23.386;2023-05-10T03:00:29;6.07;;;5.20;;
7917;SDS011;4004;42.624;23.386;2023-05-10T03:02:55;6.43;;;5.70;;
7917;SDS011;4004;42.624;23.386;2023-05-10T03:05:22;7.00;;;6.27;;
7917;SDS011;4004;42.624;23.386;2023-05-10T03:07:49;6.23;;;5.50;;
7917;SDS011;4004;42.624;23.386;2023-05-10T03:10:17;6.97;;;6.13;;
7917;SDS011;4004;42.624;23.386;2023-05-10T03:12:56;8.07;;;6.30;;
7917;SDS011;4004;42.624;23.386;2023-05-10T03:15:38;7.63;;;6.23;;
7917;SDS011;4004;42.624;23.386;2023-05-10T03:18:15;5.80;;;5.23;;
7917;SDS011;4004;42.624;23.386;2023-05-10T03:20:46;6.30;;;5.70;;
7917;SDS011;4004;42.624;23.386;2023-05-10T03:23:18;6.43;;;5.83;;
7917;SDS011;4004;42.624;23.386;2023-05-10T03:25:49;7.73;;;6.47;;
7917;SDS011;4004;42.624;23.386;2023-05-10T03:28:18;6.53;;;5.87;;
7917;SDS011;4004;42.624;23.386;2023-05-10T03:30:46;8.63;;;6.07;;
7917;SDS011;4004;42.624;23.386;2023-05-10T03:33:13;6.43;;;5.83;;
7917;SDS011;4004;42.624;23.386;2023-05-10T03:35:40;6.27;;;5.77;;
7917;SDS011;4004;42.624;23.386;2023-05-10T03:38:07;6.37;;;5.77;;
7917;SDS011;4004;42.624;23.386;2023-05-10T03:40:33;10.17;;;6.40;;
7917;SDS011;4004;42.624;23.386;2023-05-10T03:43:00;5.80;;;5.30;;
7917;SDS011;4004;42.624;23.386;2023-05-10T03:45:28;6.00;;;5.23;;
7917;SDS011;4004;42.624;23.386;2023-05-10T03:47:56;5.87;;;4.83;;
7917;SDS011;4004;42.624;23.386;2023-05-10T03:50:23;7.23;;;5.30;;
7917;SDS011;4004;42.624;23.386;2023-05-10T03:52:51;6.10;;;5.50;;
7917;SDS011;4004;42.624;23.386;2023-05-10T03:55:18;5.20;;;4.70;;
7917;SDS011;4004;42.624;23.386;2023-05-10T03:57:44;6.73;;;5.30;;
7917;SDS011;4004;42.624;23.386;2023-05-10T04:00:11;11.67;;;10.47;;
7917;SDS011;4004;42.624;23.386;2023-05-10T04:02:40;6.27;;;5.40;;
7917;SDS011;4004;42.624;23.386;2023-05-10T04:05:07;5.00;;;4.60;;
7917;SDS011;4004;42.624;23.386;2023-05-10T04:07:35;7.60;;;4.67;;
7917;SDS011;4004;42.624;23.386;2023-05-10T04:10:01;5.67;;;5.07;;
7917;SDS011;4004;42.624;23.386;2023-05-10T04:12:28;5.57;;;5.07;;
7917;SDS011;4004;42.624;23.386;2023-05-10T04:14:55;5.30;;;4.80;;
7917;SDS011;4004;42.624;23.386;2023-05-10T04:17:22;6.10;;;5.50;;
7917;SDS011;4004;42.624;23.386;2023-05-10T04:19:50;7.57;;;4.53;;
7917;SDS011;4004;42.624;23.386;2023-05-10T04:22:18;5.40;;;4.90;;
7917;SDS011;4004;42.624;23.386;2023-05-10T04:24:45;7.93;;;5.33;;
7917;SDS011;4004;42.624;23.386;2023-05-10T04:27:11;6.43;;;5.70;;
7917;SDS011;4004;42.624;23.386;2023-05-10T04:29:38;5.97;;;4.77;;
7917;SDS011;4004;42.624;23.386;2023-05-10T04:32:05;6.63;;;6.03;;
7917;SDS011;4004;42.624;23.386;2023-05-10T04:34:32;5.13;;;4.53;;
7917;SDS011;4004;42.624;23.386;2023-05-10T04:37:00;6.60;;;5.77;;
7917;SDS011;4004;42.624;23.386;2023-05-10T04:39:27;7.67;;;5.63;;
7917;SDS011;4004;42.624;23.386;2023-05-10T04:41:54;6.40;;;4.87;;
7917;SDS011;4004;42.624;23.386;2023-05-10T04:44:21;5.90;;;5.30;;
7917;SDS011;4004;42.624;23.386;2023-05-10T04:46:47;6.47;;;5.50;;
7917;SDS011;4004;42.624;23.386;2023-05-10T04:49:14;5.47;;;4.97;;
7917;SDS011;4004;42.624;23.386;2023-05-10T04:51:41;8.70;;;6.67;;
7917;SDS011;4004;42.624;23.386;2023-05-10T04:54:09;6.40;;;5.20;;
7917;SDS011;4004;42.624;23.386;2023-05-10T04:56:36;5.60;;;5.10;;
7917;SDS011;4004;42.624;23.386;2023-05-10T04:59:03;6.57;;;5.20;;
7917;SDS011;4004;42.624;23.386;2023-05-10T05:01:30;5.57;;;5.07;;
7917;SDS011;4004;42.624;23.386;2023-05-10T05:03:57;8.93;;;5.20;;
7917;SDS011;4004;42.624;23.386;2023-05-10T05:06:24;7.07;;;5.70;;
7917;SDS011;4004;42.624;23.386;2023-05-10T05:08:52;6.37;;;5.73;;
7917;SDS011;4004;42.624;23.386;2023-05-10T05:11:20;6.10;;;5.47;;
7917;SDS011;4004;42.624;23.386;2023-05-10T05:13:47;5.93;;;5.27;;
7917;SDS011;4004;42.624;23.386;2023-05-10T05:16:14;6.30;;;5.33;;
7917;SDS011;4004;42.624;23.386;2023-05-10T05:18:40;6.80;;;5.07;;
7917;SDS011;4004;42.624;23.386;2023-05-10T05:21:13;6.80;;;6.20;;
7917;SDS011;4004;42.624;23.386;2023-05-10T05:23:41;6.63;;;5.80;;
7917;SDS011;4004;42.624;23.386;2023-05-10T05:26:07;6.30;;;5.70;;
7917;SDS011;4004;42.624;23.386;2023-05-10T05:28:36;7.00;;;5.20;;
7917;SDS011;4004;42.624;23.386;2023-05-10T05:31:03;6.70;;;6.00;;
7917;SDS011;4004;42.624;23.386;2023-05-10T05:33:30;8.03;;;5.63;;
7917;SDS011;4004;42.624;23.386;2023-05-10T05:35:57;7.53;;;6.83;;
7917;SDS011;4004;42.624;23.386;2023-05-10T05:38:27;6.33;;;5.73;;
7917;SDS011;4004;42.624;23.386;2023-05-10T05:40:54;6.53;;;5.93;;
7917;SDS011;4004;42.624;23.386;2023-05-10T05:43:20;6.63;;;5.90;;
7917;SDS011;4004;42.624;23.386;2023-05-10T05:45:49;7.53;;;6.80;;
7917;SDS011;4004;42.624;23.386;2023-05-10T05:48:15;6.53;;;5.93;;
7917;SDS011;4004;42.624;23.386;2023-05-10T05:50:42;8.73;;;7.03;;
7917;SDS011;4004;42.624;23.386;2023-05-10T05:53:09;8.63;;;7.73;;
7917;SDS011;4004;42.624;23.386;2023-05-10T05:55:36;8.33;;;7.50;;
7917;SDS011;4004;42.624;23.386;2023-05-10T05:58:02;8.40;;;7.47;;
7917;SDS011;4004;42.624;23.386;2023-05-10T06:00:29;8.53;;;7.27;;
7917;SDS011;4004;42.624;23.386;2023-05-10T06:02:57;8.50;;;7.50;;
7917;SDS011;4004;42.624;23.386;2023-05-10T06:05:24;10.63;;;8.53;;
7917;SDS011;4004;42.624;23.386;2023-05-10T06:07:51;9.20;;;8.30;;
7917;SDS011;4004;42.624;23.386;2023-05-10T06:10:17;11.10;;;8.80;;
7917;SDS011;4004;42.624;23.386;2023-05-10T06:12:44;12.07;;;8.87;;
7917;SDS011;4004;42.624;23.386;2023-05-10T06:15:11;10.30;;;8.10;;
7917;SDS011;4004;42.624;23.386;2023-05-10T06:17:38;11.47;;;8.60;;
7917;SDS011;4004;42.624;23.386;2023-05-10T06:20:07;9.43;;;8.43;;
7917;SDS011;4004;42.624;23.386;2023-05-10T06:22:34;10.40;;;9.07;;
7917;SDS011;4004;42.624;23.386;2023-05-10T06:25:01;9.87;;;8.93;;
7917;SDS011;4004;42.624;23.386;2023-05-10T06:27:28;11.77;;;8.53;;
7917;SDS011;4004;42.624;23.386;2023-05-10T06:29:54;9.17;;;7.97;;
7917;SDS011;4004;42.624;23.386;2023-05-10T06:32:21;10.73;;;8.90;;
7917;SDS011;4004;42.624;23.386;2023-05-10T06:34:48;9.47;;;8.20;;
7917;SDS011;4004;42.624;23.386;2023-05-10T06:37:16;10.87;;;8.70;;
7917;SDS011;4004;42.624;23.386;2023-05-10T06:39:43;8.63;;;7.83;;
7917;SDS011;4004;42.624;23.386;2023-05-10T06:42:09;8.57;;;7.67;;
7917;SDS011;4004;42.624;23.386;2023-05-10T06:44:36;9.40;;;8.50;;
7917;SDS011;4004;42.624;23.386;2023-05-10T06:47:03;10.27;;;9.27;;
7917;SDS011;4004;42.624;23.386;2023-05-10T06:49:30;10.07;;;9.07;;
7917;SDS011;4004;42.624;23.386;2023-05-10T06:51:56;9.70;;;8.80;;
7917;SDS011;4004;42.624;23.386;2023-05-10T06:54:24;9.40;;;8.40;;
7917;SDS011;4004;42.624;23.386;2023-05-10T06:56:51;11.13;;;10.13;;
7917;SDS011;4004;42.624;23.386;2023-05-10T06:59:18;9.00;;;8.10;;
7917;SDS011;4004;42.624;23.386;2023-05-10T07:01:46;11.83;;;8.93;;
7917;SDS011;4004;42.624;23.386;2023-05-10T07:04:13;10.03;;;9.10;;
7917;SDS011;4004;42.624;23.386;2023-05-10T07:06:39;10.47;;;8.83;;
7917;SDS011;4004;42.624;23.386;2023-05-10T07:09:06;12.33;;;8.47;;
7917;SDS011;4004;42.624;23.386;2023-05-10T07:11:35;9.20;;;8.30;;
7917;SDS011;4004;42.624;23.386;2023-05-10T07:14:03;8.53;;;7.70;;
7917;SDS011;4004;42.624;23.386;2023-05-10T07:16:30;15.50;;;7.70;;
7917;SDS011;4004;42.624;23.386;2023-05-10T07:18:57;12.20;;;8.10;;
7917;SDS011;4004;42.624;23.386;2023-05-10T07:21:23;8.97;;;7.90;;
7917;SDS011;4004;42.624;23.386;2023-05-10T07:23:53;10.77;;;8.77;;
7917;SDS011;4004;42.624;23.386;2023-05-10T07:26:20;9.90;;;8.20;;
7917;SDS011;4004;42.624;23.386;2023-05-10T07:28:48;11.23;;;9.53;;
7917;SDS011;4004;42.624;23.386;2023-05-10T07:31:15;11.07;;;8.57;;
7917;SDS011;4004;42.624;23.386;2023-05-10T07:33:41;9.67;;;8.73;;
7917;SDS011;4004;42.624;23.386;2023-05-10T07:36:08;9.73;;;8.83;;
7917;SDS011;4004;42.624;23.386;2023-05-10T07:38:35;12.07;;;9.60;;
7917;SDS011;4004;42.624;23.386;2023-05-10T07:41:02;12.80;;;8.60;;
7917;SDS011;4004;42.624;23.386;2023-05-10T07:43:28;11.30;;;9.83;;
7917;SDS011;4004;42.624;23.386;2023-05-10T07:45:56;14.53;;;9.63;;
7917;SDS011;4004;42.624;23.386;2023-05-10T07:48:24;10.97;;;9.90;;
7917;SDS011;4004;42.624;23.386;2023-05-10T07:50:51;12.97;;;9.30;;
7917;SDS011;4004;42.624;23.386;2023-05-10T07:53:18;11.23;;;10.10;;
7917;SDS011;4004;42.624;23.386;2023-05-10T07:55:47;10.80;;;9.80;;
7917;SDS011;4004;42.624;23.386;2023-05-10T07:58:16;11.70;;;10.00;;
7917;SDS011;4004;42.624;23.386;2023-05-10T08:00:43;10.70;;;9.60;;
7917;SDS011;4004;42.624;23.386;2023-05-10T08:03:11;12.60;;;10.67;;
7917;SDS011;4004;42.624;23.386;2023-05-10T08:05:38;10.80;;;9.37;;
7917;SDS011;4004;42.624;23.386;2023-05-10T08:08:04;11.20;;;10.07;;
7917;SDS011;4004;42.624;23.386;2023-05-10T08:10:31;11.43;;;9.43;;
7917;SDS011;4004;42.624;23.386;2023-05-10T08:12:58;11.37;;;10.20;;
7917;SDS011;4004;42.624;23.386;2023-05-10T08:15:25;10.67;;;9.57;;
7917;SDS011;4004;42.624;23.386;2023-05-10T08:17:51;9.57;;;8.67;;
7917;SDS011;4004;42.624;23.386;2023-05-10T08:20:20;11.57;;;9.30;;
7917;SDS011;4004;42.624;23.386;2023-05-10T08:22:46;11.17;;;10.07;;
7917;SDS011;4004;42.624;23.386;2023-05-10T08:25:14;11.00;;;9.70;;
7917;SDS011;4004;42.624;23.386;2023-05-10T08:27:41;10.30;;;9.30;;
7917;SDS011;4004;42.624;23.386;2023-05-10T08:30:08;10.30;;;9.20;;
7917;SDS011;4004;42.624;23.386;2023-05-10T08:32:35;9.83;;;8.77;;
7917;SDS011;4004;42.624;23.386;2023-05-10T08:35:03;9.07;;;8.17;;
7917;SDS011;4004;42.624;23.386;2023-05-10T08:37:31;9.63;;;8.73;;
7917;SDS011;4004;42.624;23.386;2023-05-10T08:39:58;10.23;;;8.70;;
7917;SDS011;4004;42.624;23.386;2023-05-10T08:42:25;12.13;;;7.77;;
7917;SDS011;4004;42.624;23.386;2023-05-10T08:44:56;8.77;;;7.87;;
7917;SDS011;4004;42.624;23.386;2023-05-10T08:47:23;9.20;;;8.20;;
7917;SDS011;4004;42.624;23.386;2023-05-10T08:49:51;9.53;;;8.70;;
7917;SDS011;4004;42.624;23.386;2023-05-10T08:52:18;9.60;;;8.43;;
7917;SDS011;4004;42.624;23.386;2023-05-10T08:54:47;10.27;;;9.20;;
7917;SDS011;4004;42.624;23.386;2023-05-10T08:57:14;17.23;;;11.43;;
7917;SDS011;4004;42.624;23.386;2023-05-10T08:59:41;9.37;;;8.57;;
7917;SDS011;4004;42.624;23.386;2023-05-10T09:02:08;10.63;;;8.20;;
7917;SDS011;4004;42.624;23.386;2023-05-10T09:04:37;10.63;;;9.57;;
7917;SDS011;4004;42.624;23.386;2023-05-10T09:07:04;10.63;;;9.40;;
7917;SDS011;4004;42.624;23.386;2023-05-10T09:09:32;10.27;;;9.23;;
7917;SDS011;4004;42.624;23.386;2023-05-10T09:12:01;10.27;;;9.33;;
7917;SDS011;4004;42.624;23.386;2023-05-10T09:14:28;12.73;;;9.90;;
7917;SDS011;4004;42.624;23.386;2023-05-10T09:16:55;10.67;;;8.87;;
7917;SDS011;4004;42.624;23.386;2023-05-10T09:19:22;9.77;;;8.87;;
7917;SDS011;4004;42.624;23.386;2023-05-10T09:21:49;11.70;;;10.50;;
7917;SDS011;4004;42.624;23.386;2023-05-10T09:24:16;10.23;;;9.33;;
7917;SDS011;4004;42.624;23.386;2023-05-10T09:26:45;10.17;;;9.27;;
7917;SDS011;4004;42.624;23.386;2023-05-10T09:29:15;10.97;;;9.87;;
7917;SDS011;4004;42.624;23.386;2023-05-10T09:31:45;11.20;;;10.17;;
7917;SDS011;4004;42.624;23.386;2023-05-10T09:34:16;10.80;;;9.20;;
7917;SDS011;4004;42.624;23.386;2023-05-10T09:36:50;10.60;;;9.70;;
7917;SDS011;4004;42.624;23.386;2023-05-10T09:39:18;10.13;;;8.27;;
7917;SDS011;4004;42.624;23.386;2023-05-10T09:41:45;9.73;;;8.33;;
7917;SDS011;4004;42.624;23.386;2023-05-10T09:44:17;8.10;;;7.40;;
7917;SDS011;4004;42.624;23.386;2023-05-10T09:46:49;9.67;;;8.73;;
7917;SDS011;4004;42.624;23.386;2023-05-10T09:49:17;10.07;;;7.50;;
7917;SDS011;4004;42.624;23.386;2023-05-10T09:51:44;9.97;;;8.00;;
7917;SDS011;4004;42.624;23.386;2023-05-10T09:54:12;8.53;;;7.73;;
7917;SDS011;4004;42.624;23.386;2023-05-10T09:56:40;9.30;;;8.27;;
7917;SDS011;4004;42.624;23.386;2023-05-10T09:59:07;9.27;;;8.27;;
7917;SDS011;4004;42.624;23.386;2023-05-10T10:01:37;9.47;;;8.57;;
7917;SDS011;4004;42.624;23.386;2023-05-10T10:04:06;8.70;;;7.90;;
7917;SDS011;4004;42.624;23.386;2023-05-10T10:06:36;8.00;;;7.20;;
7917;SDS011;4004;42.624;23.386;2023-05-10T10:09:04;8.53;;;7.67;;
7917;SDS011;4004;42.624;23.386;2023-05-10T10:11:33;8.43;;;6.97;;
7917;SDS011;4004;42.624;23.386;2023-05-10T10:14:01;7.83;;;7.03;;
7917;SDS011;4004;42.624;23.386;2023-05-10T10:16:28;10.10;;;9.20;;
7917;SDS011;4004;42.624;23.386;2023-05-10T10:18:57;10.60;;;7.43;;
7917;SDS011;4004;42.624;23.386;2023-05-10T10:21:24;7.70;;;6.90;;
7917;SDS011;4004;42.624;23.386;2023-05-10T10:23:51;8.33;;;6.83;;
7917;SDS011;4004;42.624;23.386;2023-05-10T10:26:18;8.63;;;6.87;;
7917;SDS011;4004;42.624;23.386;2023-05-10T10:28:47;8.50;;;6.50;;
7917;SDS011;4004;42.624;23.386;2023-05-10T10:31:23;9.47;;;8.23;;
7917;SDS011;4004;42.624;23.386;2023-05-10T10:33:59;11.83;;;8.03;;
7917;SDS011;4004;42.624;23.386;2023-05-10T10:36:28;8.57;;;6.87;;
7917;SDS011;4004;42.624;23.386;2023-05-10T10:38:59;8.07;;;7.27;;
7917;SDS011;4004;42.624;23.386;2023-05-10T10:41:32;9.07;;;7.07;;
7917;SDS011;4004;42.624;23.386;2023-05-10T10:47:00;8.67;;;7.33;;
7917;SDS011;4004;42.624;23.386;2023-05-10T10:49:37;8.50;;;6.43;;
7917;SDS011;4004;42.624;23.386;2023-05-10T10:54:59;7.97;;;6.70;;
7917;SDS011;4004;42.624;23.386;2023-05-10T10:57:27;6.77;;;6.07;;
7917;SDS011;4004;42.624;23.386;2023-05-10T11:02:47;10.70;;;6.13;;
7917;SDS011;4004;42.624;23.386;2023-05-10T11:08:13;8.50;;;6.43;;
7917;SDS011;4004;42.624;23.386;2023-05-10T11:11:02;8.83;;;7.87;;
7917;SDS011;4004;42.624;23.386;2023-05-10T11:13:32;8.40;;;6.97;;
7917;SDS011;4004;42.624;23.386;2023-05-10T11:16:14;9.40;;;7.33;;
7917;SDS011;4004;42.624;23.386;2023-05-10T11:18:53;7.03;;;6.33;;
7917;SDS011;4004;42.624;23.386;2023-05-10T11:21:24;7.67;;;6.97;;
7917;SDS011;4004;42.624;23.386;2023-05-10T11:23:53;10.60;;;8.23;;
7917;SDS011;4004;42.624;23.386;2023-05-10T11:26:22;8.03;;;7.33;;
7917;SDS011;4004;42.624;23.386;2023-05-10T11:28:51;8.83;;;6.70;;
7917;SDS011;4004;42.624;23.386;2023-05-10T11:31:20;6.53;;;5.90;;
7917;SDS011;4004;42.624;23.386;2023-05-10T11:33:49;11.27;;;6.43;;
7917;SDS011;4004;42.624;23.386;2023-05-10T11:36:17;9.47;;;7.27;;
7917;SDS011;4004;42.624;23.386;2023-05-10T11:38:46;6.73;;;6.10;;
7917;SDS011;4004;42.624;23.386;2023-05-10T11:41:14;8.47;;;7.10;;
7917;SDS011;4004;42.624;23.386;2023-05-10T11:43:42;13.57;;;6.50;;
7917;SDS011;4004;42.624;23.386;2023-05-10T11:46:12;10.50;;;8.20;;
7917;SDS011;4004;42.624;23.386;2023-05-10T11:48:40;8.33;;;7.50;;
7917;SDS011;4004;42.624;23.386;2023-05-10T11:51:07;11.83;;;7.67;;
7917;SDS011;4004;42.624;23.386;2023-05-10T11:53:34;9.90;;;7.70;;
7917;SDS011;4004;42.624;23.386;2023-05-10T11:56:06;10.20;;;7.70;;
7917;SDS011;4004;42.624;23.386;2023-05-10T11:58:34;9.13;;;7.80;;
7917;SDS011;4004;42.624;23.386;2023-05-10T12:01:02;14.17;;;9.13;;
7917;SDS011;4004;42.624;23.386;2023-05-10T12:03:30;13.27;;;7.37;;
7917;SDS011;4004;42.624;23.386;2023-05-10T12:05:57;15.90;;;9.63;;
7917;SDS011;4004;42.624;23.386;2023-05-10T12:08:25;8.87;;;7.97;;
7917;SDS011;4004;42.624;23.386;2023-05-10T12:10:53;8.03;;;6.80;;
7917;SDS011;4004;42.624;23.386;2023-05-10T12:13:31;8.67;;;7.43;;
7917;SDS011;4004;42.624;23.386;2023-05-10T12:15:58;9.80;;;7.67;;
7917;SDS011;4004;42.624;23.386;2023-05-10T12:18:25;8.10;;;7.33;;
7917;SDS011;4004;42.624;23.386;2023-05-10T12:20:52;9.20;;;7.53;;
7917;SDS011;4004;42.624;23.386;2023-05-10T12:23:19;10.80;;;8.27;;
7917;SDS011;4004;42.624;23.386;2023-05-10T12:25:46;8.67;;;7.87;;
7917;SDS011;4004;42.624;23.386;2023-05-10T12:28:13;11.47;;;8.53;;
7917;SDS011;4004;42.624;23.386;2023-05-10T12:30:41;10.80;;;8.43;;
7917;SDS011;4004;42.624;23.386;2023-05-10T12:33:08;8.57;;;7.37;;
7917;SDS011;4004;42.624;23.386;2023-05-10T12:35:43;8.87;;;7.97;;
7917;SDS011;4004;42.624;23.386;2023-05-10T12:40:59;8.43;;;7.50;;
7917;SDS011;4004;42.624;23.386;2023-05-10T12:43:26;7.43;;;6.67;;
7917;SDS011;4004;42.624;23.386;2023-05-10T12:45:55;10.07;;;7.47;;
7917;SDS011;4004;42.624;23.386;2023-05-10T12:48:21;8.97;;;7.63;;
7917;SDS011;4004;42.624;23.386;2023-05-10T12:50:48;18.63;;;8.67;;
7917;SDS011;4004;42.624;23.386;2023-05-10T12:53:15;9.40;;;7.07;;
7917;SDS011;4004;42.624;23.386;2023-05-10T12:55:42;7.90;;;7.10;;
7917;SDS011;4004;42.624;23.386;2023-05-10T12:58:09;8.10;;;6.70;;
7917;SDS011;4004;42.624;23.386;2023-05-10T13:00:36;7.10;;;6.50;;
7917;SDS011;4004;42.624;23.386;2023-05-10T13:03:04;7.10;;;5.90;;
7917;SDS011;4004;42.624;23.386;2023-05-10T13:05:31;10.07;;;6.87;;
7917;SDS011;4004;42.624;23.386;2023-05-10T13:07:58;11.33;;;6.63;;
7917;SDS011;4004;42.624;23.386;2023-05-10T13:10:25;6.77;;;6.13;;
7917;SDS011;4004;42.624;23.386;2023-05-10T13:12:52;8.77;;;6.90;;
7917;SDS011;4004;42.624;23.386;2023-05-10T13:15:18;8.63;;;7.17;;
7917;SDS011;4004;42.624;23.386;2023-05-10T13:17:45;7.77;;;6.73;;
7917;SDS011;4004;42.624;23.386;2023-05-10T13:20:13;7.53;;;6.47;;
7917;SDS011;4004;42.624;23.386;2023-05-10T13:22:41;7.13;;;6.47;;
7917;SDS011;4004;42.624;23.386;2023-05-10T13:25:08;7.70;;;6.90;;
7917;SDS011;4004;42.624;23.386;2023-05-10T13:27:35;7.47;;;6.43;;
7917;SDS011;4004;42.624;23.386;2023-05-10T13:30:02;9.87;;;6.50;;
7917;SDS011;4004;42.624;23.386;2023-05-10T13:32:30;9.20;;;5.73;;
7917;SDS011;4004;42.624;23.386;2023-05-10T13:34:56;8.73;;;6.77;;
7917;SDS011;4004;42.624;23.386;2023-05-10T13:37:24;9.87;;;6.47;;
7917;SDS011;4004;42.624;23.386;2023-05-10T13:39:51;9.93;;;7.50;;
7917;SDS011;4004;42.624;23.386;2023-05-10T13:42:18;10.27;;;7.63;;
7917;SDS011;4004;42.624;23.386;2023-05-10T13:44:45;7.83;;;7.13;;
7917;SDS011;4004;42.624;23.386;2023-05-10T13:47:12;10.23;;;7.23;;
7917;SDS011;4004;42.624;23.386;2023-05-10T13:49:38;15.83;;;8.37;;
7917;SDS011;4004;42.624;23.386;2023-05-10T13:52:05;8.43;;;7.63;;
7917;SDS011;4004;42.624;23.386;2023-05-10T13:54:33;8.57;;;6.67;;
7917;SDS011;4004;42.624;23.386;2023-05-10T13:57:00;8.43;;;7.57;;
7917;SDS011;4004;42.624;23.386;2023-05-10T13:59:28;8.60;;;7.03;;
7917;SDS011;4004;42.624;23.386;2023-05-10T14:01:56;9.50;;;7.87;;
7917;SDS011;4004;42.624;23.386;2023-05-10T14:04:23;7.80;;;7.07;;
7917;SDS011;4004;42.624;23.386;2023-05-10T14:06:50;9.83;;;7.10;;
7917;SDS011;4004;42.624;23.386;2023-05-10T14:09:17;7.70;;;7.00;;
7917;SDS011;4004;42.624;23.386;2023-05-10T14:11:46;16.07;;;7.07;;
7917;SDS011;4004;42.624;23.386;2023-05-10T14:14:12;9.57;;;7.37;;
7917;SDS011;4004;42.624;23.386;2023-05-10T14:16:41;7.97;;;7.00;;
7917;SDS011;4004;42.624;23.386;2023-05-10T14:19:09;9.53;;;7.60;;
7917;SDS011;4004;42.624;23.386;2023-05-10T14:21:36;10.23;;;6.67;;
7917;SDS011;4004;42.624;23.386;2023-05-10T14:24:03;11.17;;;7.83;;
7917;SDS011;4004;42.624;23.386;2023-05-10T14:26:31;12.03;;;7.67;;
7917;SDS011;4004;42.624;23.386;2023-05-10T14:29:00;8.30;;;7.33;;
7917;SDS011;4004;42.624;23.386;2023-05-10T14:31:27;9.20;;;7.17;;
7917;SDS011;4004;42.624;23.386;2023-05-10T14:33:55;11.40;;;6.83;;
7917;SDS011;4004;42.624;23.386;2023-05-10T14:36:22;8.37;;;7.60;;
7917;SDS011;4004;42.624;23.386;2023-05-10T14:38:48;10.47;;;7.77;;
7917;SDS011;4004;42.624;23.386;2023-05-10T14:41:15;8.23;;;7.43;;
7917;SDS011;4004;42.624;23.386;2023-05-10T14:43:42;11.37;;;8.23;;
7917;SDS011;4004;42.624;23.386;2023-05-10T14:46:10;13.10;;;7.77;;
7917;SDS011;4004;42.624;23.386;2023-05-10T14:48:37;11.00;;;7.50;;
7917;SDS011;4004;42.624;23.386;2023-05-10T14:51:04;9.10;;;7.53;;
7917;SDS011;4004;42.624;23.386;2023-05-10T14:53:31;7.80;;;7.07;;
7917;SDS011;4004;42.624;23.386;2023-05-10T14:55:58;12.20;;;6.77;;
7917;SDS011;4004;42.624;23.386;2023-05-10T14:58:26;8.13;;;6.70;;
7917;SDS011;4004;42.624;23.386;2023-05-10T15:00:53;7.77;;;6.93;;
7917;SDS011;4004;42.624;23.386;2023-05-10T15:03:21;7.70;;;6.93;;
7917;SDS011;4004;42.624;23.386;2023-05-10T15:05:48;7.23;;;6.60;;
7917;SDS011;4004;42.624;23.386;2023-05-10T15:08:14;8.63;;;6.97;;
7917;SDS011;4004;42.624;23.386;2023-05-10T15:10:41;9.27;;;7.43;;
7917;SDS011;4004;42.624;23.386;2023-05-10T15:13:08;12.27;;;7.13;;
7917;SDS011;4004;42.624;23.386;2023-05-10T15:15:35;13.03;;;6.47;;
7917;SDS011;4004;42.624;23.386;2023-05-10T15:18:01;9.83;;;6.50;;